sensor_id;sensor_type;location;lat;lon;timestamp;P1;durP1;ratioP1;P2;durP2;ratioP2
52564;SDS011;38460;53.106;7.004;2022-12-18T00:00:46;105.75;;;39.65;;
52564;SDS011;38460;53.106;7.004;2022-12-18T00:03:12;100.25;;;39.13;;
52564;SDS011;38460;53.106;7.004;2022-12-18T00:06:12;82.40;;;35.60;;
52564;SDS011;38460;53.106;7.004;2022-12-18T00:08:31;86.75;;;35.53;;
52564;SDS011;38460;53.106;7.004;2022-12-18T00:11:03;77.13;;;34.25;;
52564;SDS011;38460;53.106;7.004;2022-12-18T00:13:33;81.15;;;33.17;;
52564;SDS011;38460;53.106;7.004;2022-12-18T00:16:03;95.60;;;35.58;;
52564;SDS011;38460;53.106;7.004;2022-12-18T00:18:31;88.88;;;35.15;;
52564;SDS011;38460;53.106;7.004;2022-12-18T00:21:00;83.45;;;34.95;;
52564;SDS011;38460;53.106;7.004;2022-12-18T00:23:28;92.35;;;34.85;;
52564;SDS011;38460;53.106;7.004;2022-12-18T00:25:54;91.70;;;35.50;;
52564;SDS011;38460;53.106;7.004;2022-12-18T00:28:24;87.10;;;35.35;;
52564;SDS011;38460;53.106;7.004;2022-12-18T00:30:49;83.03;;;34.58;;
52564;SDS011;38460;53.106;7.004;2022-12-18T00:33:17;90.65;;;36.40;;
52564;SDS011;38460;53.106;7.004;2022-12-18T00:35:43;89.82;;;38.42;;
52564;SDS011;38460;53.106;7.004;2022-12-18T00:38:08;74.97;;;34.05;;
52564;SDS011;38460;53.106;7.004;2022-12-18T00:40:34;83.28;;;33.78;;
52564;SDS011;38460;53.106;7.004;2022-12-18T00:43:00;85.65;;;32.40;;
52564;SDS011;38460;53.106;7.004;2022-12-18T00:45:26;86.70;;;33.50;;
52564;SDS011;38460;53.106;7.004;2022-12-18T00:47:54;76.25;;;31.95;;
52564;SDS011;38460;53.106;7.004;2022-12-18T00:50:21;72.10;;;31.27;;
52564;SDS011;38460;53.106;7.004;2022-12-18T00:52:47;74.53;;;31.02;;
52564;SDS011;38460;53.106;7.004;2022-12-18T00:55:13;80.15;;;32.05;;
52564;SDS011;38460;53.106;7.004;2022-12-18T00:57:39;71.20;;;29.98;;
52564;SDS011;38460;53.106;7.004;2022-12-18T01:00:07;78.53;;;33.88;;
52564;SDS011;38460;53.106;7.004;2022-12-18T01:02:36;87.05;;;33.88;;
52564;SDS011;38460;53.106;7.004;2022-12-18T01:05:01;79.80;;;32.47;;
52564;SDS011;38460;53.106;7.004;2022-12-18T01:07:28;89.72;;;34.97;;
52564;SDS011;38460;53.106;7.004;2022-12-18T01:09:53;79.43;;;35.28;;
52564;SDS011;38460;53.106;7.004;2022-12-18T01:12:19;80.78;;;34.92;;
52564;SDS011;38460;53.106;7.004;2022-12-18T01:14:45;81.05;;;34.08;;
52564;SDS011;38460;53.106;7.004;2022-12-18T01:17:11;88.50;;;34.45;;
52564;SDS011;38460;53.106;7.004;2022-12-18T01:19:36;92.95;;;36.05;;
52564;SDS011;38460;53.106;7.004;2022-12-18T01:22:02;92.38;;;35.75;;
52564;SDS011;38460;53.106;7.004;2022-12-18T01:24:28;94.88;;;37.05;;
52564;SDS011;38460;53.106;7.004;2022-12-18T01:26:54;91.97;;;36.60;;
52564;SDS011;38460;53.106;7.004;2022-12-18T01:29:19;86.63;;;33.50;;
52564;SDS011;38460;53.106;7.004;2022-12-18T01:31:45;87.03;;;34.00;;
52564;SDS011;38460;53.106;7.004;2022-12-18T01:34:11;80.13;;;33.88;;
52564;SDS011;38460;53.106;7.004;2022-12-18T01:36:37;80.78;;;33.22;;
52564;SDS011;38460;53.106;7.004;2022-12-18T01:39:07;71.47;;;32.22;;
52564;SDS011;38460;53.106;7.004;2022-12-18T01:41:36;86.85;;;34.47;;
52564;SDS011;38460;53.106;7.004;2022-12-18T01:47:19;88.70;;;34.05;;
52564;SDS011;38460;53.106;7.004;2022-12-18T01:49:45;83.18;;;34.08;;
52564;SDS011;38460;53.106;7.004;2022-12-18T01:52:11;87.95;;;34.13;;
52564;SDS011;38460;53.106;7.004;2022-12-18T01:54:37;94.75;;;33.75;;
52564;SDS011;38460;53.106;7.004;2022-12-18T01:57:02;82.22;;;34.45;;
52564;SDS011;38460;53.106;7.004;2022-12-18T01:59:28;82.53;;;33.58;;
52564;SDS011;38460;53.106;7.004;2022-12-18T02:01:56;91.40;;;33.83;;
52564;SDS011;38460;53.106;7.004;2022-12-18T02:04:23;76.63;;;32.28;;
52564;SDS011;38460;53.106;7.004;2022-12-18T02:06:51;87.07;;;33.92;;
52564;SDS011;38460;53.106;7.004;2022-12-18T02:09:36;75.85;;;33.08;;
52564;SDS011;38460;53.106;7.004;2022-12-18T02:12:42;76.07;;;32.30;;
52564;SDS011;38460;53.106;7.004;2022-12-18T02:18:07;75.80;;;32.92;;
52564;SDS011;38460;53.106;7.004;2022-12-18T02:20:49;74.55;;;32.28;;
52564;SDS011;38460;53.106;7.004;2022-12-18T02:23:27;73.38;;;33.05;;
52564;SDS011;38460;53.106;7.004;2022-12-18T02:28:47;85.13;;;35.10;;
52564;SDS011;38460;53.106;7.004;2022-12-18T02:31:21;81.63;;;32.17;;
52564;SDS011;38460;53.106;7.004;2022-12-18T02:33:52;86.43;;;33.60;;
52564;SDS011;38460;53.106;7.004;2022-12-18T02:36:20;77.35;;;30.83;;
52564;SDS011;38460;53.106;7.004;2022-12-18T02:38:48;78.97;;;33.22;;
52564;SDS011;38460;53.106;7.004;2022-12-18T02:41:15;81.15;;;35.38;;
52564;SDS011;38460;53.106;7.004;2022-12-18T02:43:46;77.22;;;35.30;;
52564;SDS011;38460;53.106;7.004;2022-12-18T02:48:57;77.80;;;31.48;;
52564;SDS011;38460;53.106;7.004;2022-12-18T02:51:50;86.00;;;34.70;;
52564;SDS011;38460;53.106;7.004;2022-12-18T02:55:11;73.25;;;32.80;;
52564;SDS011;38460;53.106;7.004;2022-12-18T03:00:04;79.97;;;33.58;;
52564;SDS011;38460;53.106;7.004;2022-12-18T03:05:33;88.78;;;37.10;;
52564;SDS011;38460;53.106;7.004;2022-12-18T03:08:14;88.03;;;35.88;;
52564;SDS011;38460;53.106;7.004;2022-12-18T03:11:09;80.28;;;33.70;;
52564;SDS011;38460;53.106;7.004;2022-12-18T03:13:45;75.78;;;34.05;;
52564;SDS011;38460;53.106;7.004;2022-12-18T03:16:19;64.63;;;30.90;;
52564;SDS011;38460;53.106;7.004;2022-12-18T03:18:58;64.97;;;30.38;;
52564;SDS011;38460;53.106;7.004;2022-12-18T03:21:32;80.13;;;31.40;;
52564;SDS011;38460;53.106;7.004;2022-12-18T03:24:03;62.40;;;29.75;;
52564;SDS011;38460;53.106;7.004;2022-12-18T03:26:33;56.83;;;28.77;;
52564;SDS011;38460;53.106;7.004;2022-12-18T03:29:02;58.85;;;29.38;;
52564;SDS011;38460;53.106;7.004;2022-12-18T03:31:31;58.57;;;27.13;;
52564;SDS011;38460;53.106;7.004;2022-12-18T03:34:04;62.15;;;26.52;;
52564;SDS011;38460;53.106;7.004;2022-12-18T03:36:42;51.85;;;26.52;;
52564;SDS011;38460;53.106;7.004;2022-12-18T03:39:10;46.30;;;24.38;;
52564;SDS011;38460;53.106;7.004;2022-12-18T03:49:41;51.10;;;23.40;;
52564;SDS011;38460;53.106;7.004;2022-12-18T03:52:35;48.13;;;23.77;;
52564;SDS011;38460;53.106;7.004;2022-12-18T03:55:03;52.42;;;25.08;;
52564;SDS011;38460;53.106;7.004;2022-12-18T03:57:32;46.80;;;21.55;;
52564;SDS011;38460;53.106;7.004;2022-12-18T04:00:00;46.55;;;24.23;;
52564;SDS011;38460;53.106;7.004;2022-12-18T04:02:30;42.63;;;22.65;;
52564;SDS011;38460;53.106;7.004;2022-12-18T04:04:58;44.03;;;20.95;;
52564;SDS011;38460;53.106;7.004;2022-12-18T04:07:27;40.38;;;22.48;;
52564;SDS011;38460;53.106;7.004;2022-12-18T04:09:53;51.25;;;24.08;;
52564;SDS011;38460;53.106;7.004;2022-12-18T04:12:24;40.72;;;22.55;;
52564;SDS011;38460;53.106;7.004;2022-12-18T04:14:51;45.03;;;22.17;;
52564;SDS011;38460;53.106;7.004;2022-12-18T04:17:17;47.60;;;22.30;;
52564;SDS011;38460;53.106;7.004;2022-12-18T04:19:43;47.72;;;22.73;;
52564;SDS011;38460;53.106;7.004;2022-12-18T04:22:11;45.38;;;22.88;;
52564;SDS011;38460;53.106;7.004;2022-12-18T04:24:37;48.63;;;22.48;;
52564;SDS011;38460;53.106;7.004;2022-12-18T04:27:03;44.85;;;23.58;;
52564;SDS011;38460;53.106;7.004;2022-12-18T04:29:29;44.85;;;22.50;;
52564;SDS011;38460;53.106;7.004;2022-12-18T04:31:54;48.13;;;22.15;;
52564;SDS011;38460;53.106;7.004;2022-12-18T04:34:20;53.15;;;22.50;;
52564;SDS011;38460;53.106;7.004;2022-12-18T04:36:46;46.08;;;24.15;;
52564;SDS011;38460;53.106;7.004;2022-12-18T04:39:13;44.45;;;22.15;;
52564;SDS011;38460;53.106;7.004;2022-12-18T04:41:39;51.97;;;22.75;;
52564;SDS011;38460;53.106;7.004;2022-12-18T04:44:04;49.17;;;21.48;;
52564;SDS011;38460;53.106;7.004;2022-12-18T04:46:30;43.08;;;22.42;;
52564;SDS011;38460;53.106;7.004;2022-12-18T04:48:56;46.65;;;20.60;;
52564;SDS011;38460;53.106;7.004;2022-12-18T04:51:22;47.00;;;20.73;;
52564;SDS011;38460;53.106;7.004;2022-12-18T04:53:47;41.95;;;19.92;;
52564;SDS011;38460;53.106;7.004;2022-12-18T04:56:14;41.65;;;21.25;;
52564;SDS011;38460;53.106;7.004;2022-12-18T04:58:42;39.70;;;21.25;;
52564;SDS011;38460;53.106;7.004;2022-12-18T05:01:09;41.53;;;20.60;;
52564;SDS011;38460;53.106;7.004;2022-12-18T05:03:36;41.30;;;22.08;;
52564;SDS011;38460;53.106;7.004;2022-12-18T05:06:03;42.13;;;19.98;;
52564;SDS011;38460;53.106;7.004;2022-12-18T05:08:29;35.70;;;19.80;;
52564;SDS011;38460;53.106;7.004;2022-12-18T05:10:59;44.08;;;18.65;;
52564;SDS011;38460;53.106;7.004;2022-12-18T05:13:29;40.28;;;19.30;;
52564;SDS011;38460;53.106;7.004;2022-12-18T05:15:55;38.65;;;18.52;;
52564;SDS011;38460;53.106;7.004;2022-12-18T05:18:22;45.20;;;19.63;;
52564;SDS011;38460;53.106;7.004;2022-12-18T05:20:49;37.70;;;20.10;;
52564;SDS011;38460;53.106;7.004;2022-12-18T05:23:16;37.65;;;19.15;;
52564;SDS011;38460;53.106;7.004;2022-12-18T05:25:42;36.28;;;20.00;;
52564;SDS011;38460;53.106;7.004;2022-12-18T05:28:11;43.15;;;19.65;;
52564;SDS011;38460;53.106;7.004;2022-12-18T05:30:37;44.63;;;19.27;;
52564;SDS011;38460;53.106;7.004;2022-12-18T05:33:02;41.58;;;20.55;;
52564;SDS011;38460;53.106;7.004;2022-12-18T05:35:28;39.30;;;18.73;;
52564;SDS011;38460;53.106;7.004;2022-12-18T05:37:54;38.55;;;19.35;;
52564;SDS011;38460;53.106;7.004;2022-12-18T05:40:19;39.38;;;19.75;;
52564;SDS011;38460;53.106;7.004;2022-12-18T05:42:45;34.80;;;18.33;;
52564;SDS011;38460;53.106;7.004;2022-12-18T05:45:11;31.77;;;17.45;;
52564;SDS011;38460;53.106;7.004;2022-12-18T05:47:37;37.53;;;20.10;;
52564;SDS011;38460;53.106;7.004;2022-12-18T05:50:02;31.52;;;17.17;;
52564;SDS011;38460;53.106;7.004;2022-12-18T05:52:28;40.15;;;18.83;;
52564;SDS011;38460;53.106;7.004;2022-12-18T05:54:55;35.92;;;18.38;;
52564;SDS011;38460;53.106;7.004;2022-12-18T05:57:21;36.90;;;18.10;;
52564;SDS011;38460;53.106;7.004;2022-12-18T05:59:47;36.30;;;18.67;;
52564;SDS011;38460;53.106;7.004;2022-12-18T06:02:12;38.60;;;19.58;;
52564;SDS011;38460;53.106;7.004;2022-12-18T06:04:38;43.85;;;20.05;;
52564;SDS011;38460;53.106;7.004;2022-12-18T06:07:04;35.65;;;18.95;;
52564;SDS011;38460;53.106;7.004;2022-12-18T06:09:30;39.50;;;20.13;;
52564;SDS011;38460;53.106;7.004;2022-12-18T06:11:55;34.45;;;18.60;;
52564;SDS011;38460;53.106;7.004;2022-12-18T06:14:21;34.42;;;19.48;;
52564;SDS011;38460;53.106;7.004;2022-12-18T06:16:47;32.78;;;19.73;;
52564;SDS011;38460;53.106;7.004;2022-12-18T06:19:15;36.95;;;18.70;;
52564;SDS011;38460;53.106;7.004;2022-12-18T06:21:41;34.53;;;18.88;;
52564;SDS011;38460;53.106;7.004;2022-12-18T06:24:07;33.80;;;17.88;;
52564;SDS011;38460;53.106;7.004;2022-12-18T06:26:33;31.88;;;17.70;;
52564;SDS011;38460;53.106;7.004;2022-12-18T06:28:59;33.95;;;18.88;;
52564;SDS011;38460;53.106;7.004;2022-12-18T06:31:25;34.83;;;17.17;;
52564;SDS011;38460;53.106;7.004;2022-12-18T06:33:51;32.38;;;17.23;;
52564;SDS011;38460;53.106;7.004;2022-12-18T06:36:17;37.42;;;19.50;;
52564;SDS011;38460;53.106;7.004;2022-12-18T06:38:43;32.42;;;18.40;;
52564;SDS011;38460;53.106;7.004;2022-12-18T06:41:10;36.13;;;20.10;;
52564;SDS011;38460;53.106;7.004;2022-12-18T06:43:37;33.28;;;18.42;;
52564;SDS011;38460;53.106;7.004;2022-12-18T06:46:03;42.55;;;19.70;;
52564;SDS011;38460;53.106;7.004;2022-12-18T06:48:29;37.17;;;20.50;;
52564;SDS011;38460;53.106;7.004;2022-12-18T06:50:56;30.95;;;17.50;;
52564;SDS011;38460;53.106;7.004;2022-12-18T06:53:22;32.45;;;20.05;;
52564;SDS011;38460;53.106;7.004;2022-12-18T06:55:47;32.95;;;15.73;;
52564;SDS011;38460;53.106;7.004;2022-12-18T06:58:13;34.42;;;17.55;;
52564;SDS011;38460;53.106;7.004;2022-12-18T07:00:39;33.65;;;17.00;;
52564;SDS011;38460;53.106;7.004;2022-12-18T07:03:05;34.20;;;17.55;;
52564;SDS011;38460;53.106;7.004;2022-12-18T07:05:31;30.63;;;17.42;;
52564;SDS011;38460;53.106;7.004;2022-12-18T07:07:57;26.83;;;16.35;;
52564;SDS011;38460;53.106;7.004;2022-12-18T07:10:23;30.63;;;17.45;;
52564;SDS011;38460;53.106;7.004;2022-12-18T07:12:49;34.03;;;16.40;;
52564;SDS011;38460;53.106;7.004;2022-12-18T07:15:15;28.75;;;16.40;;
52564;SDS011;38460;53.106;7.004;2022-12-18T07:17:40;33.88;;;18.20;;
52564;SDS011;38460;53.106;7.004;2022-12-18T07:20:06;27.98;;;16.48;;
52564;SDS011;38460;53.106;7.004;2022-12-18T07:22:32;29.13;;;16.42;;
52564;SDS011;38460;53.106;7.004;2022-12-18T07:24:58;29.95;;;15.98;;
52564;SDS011;38460;53.106;7.004;2022-12-18T07:27:24;33.03;;;15.70;;
52564;SDS011;38460;53.106;7.004;2022-12-18T07:29:49;31.23;;;16.60;;
52564;SDS011;38460;53.106;7.004;2022-12-18T07:32:15;31.65;;;16.88;;
52564;SDS011;38460;53.106;7.004;2022-12-18T07:34:41;26.35;;;14.93;;
52564;SDS011;38460;53.106;7.004;2022-12-18T07:37:06;30.70;;;16.02;;
52564;SDS011;38460;53.106;7.004;2022-12-18T07:39:32;32.08;;;15.82;;
52564;SDS011;38460;53.106;7.004;2022-12-18T07:41:58;28.92;;;15.70;;
52564;SDS011;38460;53.106;7.004;2022-12-18T07:44:43;27.33;;;15.05;;
52564;SDS011;38460;53.106;7.004;2022-12-18T07:47:08;28.80;;;15.95;;
52564;SDS011;38460;53.106;7.004;2022-12-18T07:49:34;31.30;;;17.58;;
52564;SDS011;38460;53.106;7.004;2022-12-18T07:52:00;26.60;;;14.52;;
52564;SDS011;38460;53.106;7.004;2022-12-18T07:54:26;25.98;;;14.68;;
52564;SDS011;38460;53.106;7.004;2022-12-18T07:56:52;28.08;;;15.13;;
52564;SDS011;38460;53.106;7.004;2022-12-18T07:59:18;30.55;;;16.13;;
52564;SDS011;38460;53.106;7.004;2022-12-18T08:01:44;26.83;;;14.93;;
52564;SDS011;38460;53.106;7.004;2022-12-18T08:04:10;31.27;;;14.68;;
52564;SDS011;38460;53.106;7.004;2022-12-18T08:06:35;25.13;;;13.88;;
52564;SDS011;38460;53.106;7.004;2022-12-18T08:09:01;26.27;;;14.07;;
52564;SDS011;38460;53.106;7.004;2022-12-18T08:11:27;22.08;;;12.57;;
52564;SDS011;38460;53.106;7.004;2022-12-18T08:13:54;29.65;;;14.57;;
52564;SDS011;38460;53.106;7.004;2022-12-18T08:16:20;30.30;;;17.98;;
52564;SDS011;38460;53.106;7.004;2022-12-18T08:18:47;26.23;;;14.75;;
52564;SDS011;38460;53.106;7.004;2022-12-18T08:21:14;26.42;;;14.35;;
52564;SDS011;38460;53.106;7.004;2022-12-18T08:23:41;25.50;;;15.02;;
52564;SDS011;38460;53.106;7.004;2022-12-18T08:26:07;25.38;;;14.70;;
52564;SDS011;38460;53.106;7.004;2022-12-18T08:28:34;25.00;;;14.60;;
52564;SDS011;38460;53.106;7.004;2022-12-18T08:31:00;25.23;;;13.95;;
52564;SDS011;38460;53.106;7.004;2022-12-18T08:33:25;23.55;;;13.60;;
52564;SDS011;38460;53.106;7.004;2022-12-18T08:35:51;27.42;;;14.07;;
52564;SDS011;38460;53.106;7.004;2022-12-18T08:38:17;24.05;;;13.45;;
52564;SDS011;38460;53.106;7.004;2022-12-18T08:40:43;21.98;;;14.18;;
52564;SDS011;38460;53.106;7.004;2022-12-18T08:43:09;24.20;;;13.02;;
52564;SDS011;38460;53.106;7.004;2022-12-18T08:45:55;25.73;;;13.13;;
52564;SDS011;38460;53.106;7.004;2022-12-18T08:48:21;21.50;;;13.70;;
52564;SDS011;38460;53.106;7.004;2022-12-18T08:50:56;25.85;;;14.00;;
52564;SDS011;38460;53.106;7.004;2022-12-18T08:53:22;23.55;;;13.77;;
52564;SDS011;38460;53.106;7.004;2022-12-18T08:55:50;21.67;;;12.93;;
52564;SDS011;38460;53.106;7.004;2022-12-18T08:58:15;23.50;;;13.90;;
52564;SDS011;38460;53.106;7.004;2022-12-18T09:00:41;24.58;;;12.55;;
52564;SDS011;38460;53.106;7.004;2022-12-18T09:03:25;22.95;;;13.30;;
52564;SDS011;38460;53.106;7.004;2022-12-18T09:05:50;18.00;;;12.93;;
52564;SDS011;38460;53.106;7.004;2022-12-18T09:08:16;23.00;;;12.57;;
52564;SDS011;38460;53.106;7.004;2022-12-18T09:10:45;21.40;;;11.57;;
52564;SDS011;38460;53.106;7.004;2022-12-18T09:13:12;19.35;;;12.00;;
52564;SDS011;38460;53.106;7.004;2022-12-18T09:15:46;19.45;;;11.95;;
52564;SDS011;38460;53.106;7.004;2022-12-18T09:18:15;20.42;;;13.18;;
52564;SDS011;38460;53.106;7.004;2022-12-18T09:20:42;17.20;;;11.80;;
52564;SDS011;38460;53.106;7.004;2022-12-18T09:23:08;21.65;;;11.27;;
52564;SDS011;38460;53.106;7.004;2022-12-18T09:25:34;19.45;;;11.60;;
52564;SDS011;38460;53.106;7.004;2022-12-18T09:28:19;20.23;;;11.30;;
52564;SDS011;38460;53.106;7.004;2022-12-18T09:30:45;15.88;;;11.45;;
52564;SDS011;38460;53.106;7.004;2022-12-18T09:33:14;19.77;;;12.65;;
52564;SDS011;38460;53.106;7.004;2022-12-18T09:35:40;18.92;;;11.73;;
52564;SDS011;38460;53.106;7.004;2022-12-18T09:38:08;20.38;;;12.18;;
52564;SDS011;38460;53.106;7.004;2022-12-18T09:40:44;21.83;;;10.40;;
52564;SDS011;38460;53.106;7.004;2022-12-18T09:43:24;17.83;;;10.40;;
52564;SDS011;38460;53.106;7.004;2022-12-18T09:45:56;20.90;;;10.65;;
52564;SDS011;38460;53.106;7.004;2022-12-18T09:48:26;18.05;;;11.18;;
52564;SDS011;38460;53.106;7.004;2022-12-18T09:50:59;17.13;;;10.20;;
52564;SDS011;38460;53.106;7.004;2022-12-18T09:53:39;18.75;;;10.68;;
52564;SDS011;38460;53.106;7.004;2022-12-18T09:56:10;18.13;;;9.50;;
52564;SDS011;38460;53.106;7.004;2022-12-18T09:58:59;18.00;;;9.45;;
52564;SDS011;38460;53.106;7.004;2022-12-18T10:01:27;15.90;;;9.20;;
52564;SDS011;38460;53.106;7.004;2022-12-18T10:03:54;15.25;;;8.77;;
52564;SDS011;38460;53.106;7.004;2022-12-18T10:06:25;14.27;;;8.95;;
52564;SDS011;38460;53.106;7.004;2022-12-18T10:14:23;13.70;;;8.02;;
52564;SDS011;38460;53.106;7.004;2022-12-18T10:28:13;13.23;;;8.07;;
52564;SDS011;38460;53.106;7.004;2022-12-18T10:30:40;11.30;;;7.85;;
52564;SDS011;38460;53.106;7.004;2022-12-18T10:33:11;14.95;;;7.63;;
52564;SDS011;38460;53.106;7.004;2022-12-18T10:35:49;11.15;;;6.75;;
52564;SDS011;38460;53.106;7.004;2022-12-18T10:46:02;10.00;;;6.95;;
52564;SDS011;38460;53.106;7.004;2022-12-18T10:48:33;12.02;;;6.45;;
52564;SDS011;38460;53.106;7.004;2022-12-18T10:51:01;10.63;;;6.43;;
52564;SDS011;38460;53.106;7.004;2022-12-18T10:53:29;8.70;;;5.82;;
52564;SDS011;38460;53.106;7.004;2022-12-18T10:55:59;13.35;;;7.10;;
52564;SDS011;38460;53.106;7.004;2022-12-18T11:01:05;10.25;;;6.68;;
52564;SDS011;38460;53.106;7.004;2022-12-18T11:03:42;14.55;;;6.95;;
52564;SDS011;38460;53.106;7.004;2022-12-18T11:06:26;11.93;;;6.15;;
52564;SDS011;38460;53.106;7.004;2022-12-18T11:09:05;15.65;;;7.30;;
52564;SDS011;38460;53.106;7.004;2022-12-18T11:11:50;14.02;;;6.93;;
52564;SDS011;38460;53.106;7.004;2022-12-18T11:14:23;13.70;;;7.22;;
52564;SDS011;38460;53.106;7.004;2022-12-18T11:16:54;10.63;;;7.50;;
52564;SDS011;38460;53.106;7.004;2022-12-18T11:22:24;12.63;;;7.47;;
52564;SDS011;38460;53.106;7.004;2022-12-18T11:24:53;13.20;;;6.95;;
52564;SDS011;38460;53.106;7.004;2022-12-18T11:27:56;14.13;;;6.55;;
52564;SDS011;38460;53.106;7.004;2022-12-18T11:35:29;11.55;;;6.55;;
52564;SDS011;38460;53.106;7.004;2022-12-18T11:40:44;9.70;;;5.82;;
52564;SDS011;38460;53.106;7.004;2022-12-18T11:43:16;9.23;;;6.38;;
52564;SDS011;38460;53.106;7.004;2022-12-18T11:46:06;13.32;;;6.18;;
52564;SDS011;38460;53.106;7.004;2022-12-18T11:48:38;11.02;;;5.80;;
52564;SDS011;38460;53.106;7.004;2022-12-18T11:51:11;11.02;;;6.68;;
52564;SDS011;38460;53.106;7.004;2022-12-18T11:53:41;6.95;;;4.82;;
52564;SDS011;38460;53.106;7.004;2022-12-18T12:09:41;8.98;;;5.82;;
52564;SDS011;38460;53.106;7.004;2022-12-18T12:17:58;10.82;;;6.43;;
52564;SDS011;38460;53.106;7.004;2022-12-18T12:26:01;10.45;;;6.05;;
52564;SDS011;38460;53.106;7.004;2022-12-18T12:28:41;9.30;;;6.07;;
52564;SDS011;38460;53.106;7.004;2022-12-18T12:39:54;10.05;;;6.60;;
52564;SDS011;38460;53.106;7.004;2022-12-18T12:46:10;11.43;;;5.60;;
52564;SDS011;38460;53.106;7.004;2022-12-18T12:51:12;13.20;;;6.40;;
52564;SDS011;38460;53.106;7.004;2022-12-18T12:53:42;7.65;;;5.40;;
52564;SDS011;38460;53.106;7.004;2022-12-18T12:56:09;11.32;;;6.30;;
52564;SDS011;38460;53.106;7.004;2022-12-18T13:07:15;11.95;;;5.97;;
52564;SDS011;38460;53.106;7.004;2022-12-18T13:12:51;9.27;;;5.60;;
52564;SDS011;38460;53.106;7.004;2022-12-18T13:15:22;10.15;;;5.43;;
52564;SDS011;38460;53.106;7.004;2022-12-18T13:17:49;9.65;;;6.15;;
52564;SDS011;38460;53.106;7.004;2022-12-18T13:25:56;9.77;;;6.03;;
52564;SDS011;38460;53.106;7.004;2022-12-18T13:36:44;10.38;;;6.50;;
52564;SDS011;38460;53.106;7.004;2022-12-18T13:41:39;14.13;;;6.93;;
52564;SDS011;38460;53.106;7.004;2022-12-18T13:46:56;10.02;;;6.32;;
52564;SDS011;38460;53.106;7.004;2022-12-18T13:49:24;10.95;;;7.93;;
52564;SDS011;38460;53.106;7.004;2022-12-18T13:52:02;13.00;;;6.90;;
52564;SDS011;38460;53.106;7.004;2022-12-18T13:54:54;13.55;;;6.93;;
52564;SDS011;38460;53.106;7.004;2022-12-18T13:57:54;11.43;;;7.10;;
52564;SDS011;38460;53.106;7.004;2022-12-18T14:00:22;12.18;;;7.90;;
52564;SDS011;38460;53.106;7.004;2022-12-18T14:07:55;13.23;;;7.10;;
52564;SDS011;38460;53.106;7.004;2022-12-18T14:10:26;13.60;;;8.35;;
52564;SDS011;38460;53.106;7.004;2022-12-18T14:12:52;13.50;;;7.28;;
52564;SDS011;38460;53.106;7.004;2022-12-18T14:17:59;11.80;;;7.97;;
52564;SDS011;38460;53.106;7.004;2022-12-18T14:20:28;13.25;;;7.95;;
52564;SDS011;38460;53.106;7.004;2022-12-18T14:22:56;12.52;;;8.32;;
52564;SDS011;38460;53.106;7.004;2022-12-18T14:25:24;12.80;;;7.35;;
52564;SDS011;38460;53.106;7.004;2022-12-18T14:30:44;10.35;;;7.18;;
52564;SDS011;38460;53.106;7.004;2022-12-18T14:33:12;11.75;;;8.35;;
52564;SDS011;38460;53.106;7.004;2022-12-18T14:35:43;11.55;;;7.38;;
52564;SDS011;38460;53.106;7.004;2022-12-18T14:38:23;11.65;;;7.32;;
52564;SDS011;38460;53.106;7.004;2022-12-18T14:40:54;13.25;;;8.35;;
52564;SDS011;38460;53.106;7.004;2022-12-18T14:43:22;12.38;;;7.50;;
52564;SDS011;38460;53.106;7.004;2022-12-18T14:45:48;11.70;;;7.80;;
52564;SDS011;38460;53.106;7.004;2022-12-18T14:48:16;14.38;;;7.75;;
52564;SDS011;38460;53.106;7.004;2022-12-18T14:50:44;12.40;;;7.70;;
52564;SDS011;38460;53.106;7.004;2022-12-18T14:53:20;12.77;;;8.18;;
52564;SDS011;38460;53.106;7.004;2022-12-18T14:55:52;12.30;;;8.25;;
52564;SDS011;38460;53.106;7.004;2022-12-18T14:58:18;14.15;;;8.13;;
52564;SDS011;38460;53.106;7.004;2022-12-18T15:00:44;12.93;;;8.75;;
52564;SDS011;38460;53.106;7.004;2022-12-18T15:03:10;13.23;;;8.45;;
52564;SDS011;38460;53.106;7.004;2022-12-18T15:05:38;11.13;;;6.88;;
52564;SDS011;38460;53.106;7.004;2022-12-18T15:08:24;10.73;;;7.13;;
52564;SDS011;38460;53.106;7.004;2022-12-18T15:10:53;13.93;;;8.48;;
52564;SDS011;38460;53.106;7.004;2022-12-18T15:13:23;13.32;;;8.57;;
52564;SDS011;38460;53.106;7.004;2022-12-18T15:15:49;12.25;;;8.43;;
52564;SDS011;38460;53.106;7.004;2022-12-18T15:18:17;13.05;;;7.88;;
52564;SDS011;38460;53.106;7.004;2022-12-18T15:20:53;11.48;;;6.85;;
52564;SDS011;38460;53.106;7.004;2022-12-18T15:23:45;11.75;;;7.55;;
52564;SDS011;38460;53.106;7.004;2022-12-18T15:26:16;13.90;;;8.63;;
52564;SDS011;38460;53.106;7.004;2022-12-18T15:28:54;11.80;;;6.88;;
52564;SDS011;38460;53.106;7.004;2022-12-18T15:31:34;12.70;;;7.72;;
52564;SDS011;38460;53.106;7.004;2022-12-18T15:36:37;12.70;;;7.85;;
52564;SDS011;38460;53.106;7.004;2022-12-18T15:39:03;12.40;;;8.30;;
52564;SDS011;38460;53.106;7.004;2022-12-18T15:41:31;12.68;;;7.93;;
52564;SDS011;38460;53.106;7.004;2022-12-18T15:43:58;16.60;;;8.77;;
52564;SDS011;38460;53.106;7.004;2022-12-18T15:46:25;11.88;;;7.72;;
52564;SDS011;38460;53.106;7.004;2022-12-18T15:48:52;12.77;;;7.68;;
52564;SDS011;38460;53.106;7.004;2022-12-18T15:51:21;10.55;;;7.50;;
52564;SDS011;38460;53.106;7.004;2022-12-18T15:53:50;13.50;;;7.85;;
52564;SDS011;38460;53.106;7.004;2022-12-18T15:56:18;14.02;;;7.85;;
52564;SDS011;38460;53.106;7.004;2022-12-18T15:59:04;13.52;;;7.35;;
52564;SDS011;38460;53.106;7.004;2022-12-18T16:01:34;14.88;;;8.35;;
52564;SDS011;38460;53.106;7.004;2022-12-18T16:04:00;13.43;;;8.38;;
52564;SDS011;38460;53.106;7.004;2022-12-18T16:06:26;14.18;;;7.95;;
52564;SDS011;38460;53.106;7.004;2022-12-18T16:08:52;12.48;;;8.05;;
52564;SDS011;38460;53.106;7.004;2022-12-18T16:11:24;11.18;;;7.47;;
52564;SDS011;38460;53.106;7.004;2022-12-18T16:14:23;14.63;;;8.05;;
52564;SDS011;38460;53.106;7.004;2022-12-18T16:16:52;11.60;;;7.07;;
52564;SDS011;38460;53.106;7.004;2022-12-18T16:19:19;11.07;;;7.38;;
52564;SDS011;38460;53.106;7.004;2022-12-18T16:21:46;11.68;;;7.45;;
52564;SDS011;38460;53.106;7.004;2022-12-18T16:24:23;13.20;;;7.13;;
52564;SDS011;38460;53.106;7.004;2022-12-18T16:26:56;12.48;;;8.07;;
52564;SDS011;38460;53.106;7.004;2022-12-18T16:29:24;13.88;;;7.38;;
52564;SDS011;38460;53.106;7.004;2022-12-18T16:31:59;9.30;;;7.53;;
52564;SDS011;38460;53.106;7.004;2022-12-18T16:34:26;11.05;;;6.95;;
52564;SDS011;38460;53.106;7.004;2022-12-18T16:36:54;12.73;;;6.95;;
52564;SDS011;38460;53.106;7.004;2022-12-18T16:39:21;10.50;;;6.82;;
52564;SDS011;38460;53.106;7.004;2022-12-18T16:41:47;8.95;;;5.93;;
52564;SDS011;38460;53.106;7.004;2022-12-18T16:44:13;9.60;;;6.50;;
52564;SDS011;38460;53.106;7.004;2022-12-18T16:46:39;14.45;;;7.10;;
52564;SDS011;38460;53.106;7.004;2022-12-18T16:49:07;10.82;;;6.70;;
52564;SDS011;38460;53.106;7.004;2022-12-18T16:51:33;9.90;;;6.57;;
52564;SDS011;38460;53.106;7.004;2022-12-18T16:53:59;9.57;;;6.18;;
52564;SDS011;38460;53.106;7.004;2022-12-18T16:56:25;11.07;;;6.57;;
52564;SDS011;38460;53.106;7.004;2022-12-18T16:58:51;10.13;;;5.65;;
52564;SDS011;38460;53.106;7.004;2022-12-18T17:01:18;11.00;;;6.75;;
52564;SDS011;38460;53.106;7.004;2022-12-18T17:03:45;9.15;;;5.70;;
52564;SDS011;38460;53.106;7.004;2022-12-18T17:06:16;7.97;;;5.60;;